San Diego, California
Traffic Map
Current Weather Conditions
San Diego, California
Few Clouds
Few Clouds
71°
Feels Like: 71°
Wind Chill: 71° Ceiling: Unl
Heat Index: 71° Visibility: 10mi
Dew Point: 56° Wind: 10mph
Humidity: 59% Direction: 240° (WSW)
Pressure: 29.98in Gusts: 0mph
Raw Report DataKSAN 261951Z 24009KT 10SM FEW027 22/13 A2998 RMK AO2 SLP153 T02170133
Traffic Incident Summary
Active as of:
Severity:
Category:
InformationThere was an issue retrieving the traffic information for this location. Please try a different location or try again shortly.
Advertisements
Track Severe Weather on mobile